sensor_id;sensor_type;location;lat;lon;timestamp;pressure;altitude;pressure_sealevel;temperature;humidity
71457;BME280;59263;48.160;11.752;2022-10-31T00:01:22;96363.88;;;8.95;100.00
71457;BME280;59263;48.160;11.752;2022-10-31T00:03:48;96376.88;;;9.05;100.00
71457;BME280;59263;48.160;11.752;2022-10-31T00:06:13;96373.47;;;9.04;100.00
71457;BME280;59263;48.160;11.752;2022-10-31T00:08:39;96364.22;;;9.02;100.00
71457;BME280;59263;48.160;11.752;2022-10-31T00:11:08;96381.56;;;9.11;100.00
71457;BME280;59263;48.160;11.752;2022-10-31T00:13:33;96369.59;;;9.10;100.00
71457;BME280;59263;48.160;11.752;2022-10-31T00:15:59;96372.06;;;9.11;100.00
71457;BME280;59263;48.160;11.752;2022-10-31T00:18:24;96377.94;;;9.13;100.00
71457;BME280;59263;48.160;11.752;2022-10-31T00:20:58;96356.00;;;9.08;100.00
71457;BME280;59263;48.160;11.752;2022-10-31T00:23:23;96357.88;;;9.06;100.00
71457;BME280;59263;48.160;11.752;2022-10-31T00:25:49;96370.78;;;9.06;100.00
71457;BME280;59263;48.160;11.752;2022-10-31T00:28:14;96373.97;;;9.09;100.00
71457;BME280;59263;48.160;11.752;2022-10-31T00:30:39;96369.72;;;9.08;100.00
71457;BME280;59263;48.160;11.752;2022-10-31T00:33:05;96377.59;;;9.07;100.00
71457;BME280;59263;48.160;11.752;2022-10-31T00:35:30;96362.94;;;8.96;100.00
71457;BME280;59263;48.160;11.752;2022-10-31T00:37:55;96368.22;;;9.06;100.00
71457;BME280;59263;48.160;11.752;2022-10-31T00:40:21;96366.22;;;8.98;100.00
71457;BME280;59263;48.160;11.752;2022-10-31T00:42:48;96369.41;;;9.02;100.00
71457;BME280;59263;48.160;11.752;2022-10-31T00:45:14;96367.03;;;8.99;100.00
71457;BME280;59263;48.160;11.752;2022-10-31T00:47:39;96354.03;;;8.78;100.00
71457;BME280;59263;48.160;11.752;2022-10-31T00:50:05;96370.47;;;8.88;100.00
71457;BME280;59263;48.160;11.752;2022-10-31T00:52:31;96351.09;;;8.82;100.00
71457;BME280;59263;48.160;11.752;2022-10-31T00:54:56;96349.47;;;8.81;100.00
71457;BME280;59263;48.160;11.752;2022-10-31T00:57:21;96363.16;;;8.93;100.00
71457;BME280;59263;48.160;11.752;2022-10-31T00:59:47;96352.38;;;8.88;100.00
71457;BME280;59263;48.160;11.752;2022-10-31T01:02:12;96356.63;;;8.78;100.00
71457;BME280;59263;48.160;11.752;2022-10-31T01:04:37;96367.75;;;8.78;100.00
71457;BME280;59263;48.160;11.752;2022-10-31T01:07:03;96361.41;;;8.71;100.00
71457;BME280;59263;48.160;11.752;2022-10-31T01:09:28;96349.00;;;8.65;100.00
71457;BME280;59263;48.160;11.752;2022-10-31T01:11:53;96358.84;;;8.71;100.00
71457;BME280;59263;48.160;11.752;2022-10-31T01:14:19;96358.63;;;8.74;100.00
71457;BME280;59263;48.160;11.752;2022-10-31T01:16:44;96353.69;;;8.71;100.00
71457;BME280;59263;48.160;11.752;2022-10-31T01:19:09;96343.13;;;8.63;100.00
71457;BME280;59263;48.160;11.752;2022-10-31T01:21:34;96339.16;;;8.59;100.00
71457;BME280;59263;48.160;11.752;2022-10-31T01:24:00;96335.63;;;8.60;100.00
71457;BME280;59263;48.160;11.752;2022-10-31T01:26:29;96362.13;;;8.73;100.00
71457;BME280;59263;48.160;11.752;2022-10-31T01:29:06;96362.13;;;8.73;100.00
71457;BME280;59263;48.160;11.752;2022-10-31T01:31:34;96362.13;;;8.84;100.00
71457;BME280;59263;48.160;11.752;2022-10-31T01:34:00;96359.09;;;8.90;100.00
71457;BME280;59263;48.160;11.752;2022-10-31T01:36:33;96355.31;;;8.94;100.00
71457;BME280;59263;48.160;11.752;2022-10-31T01:39:01;96360.47;;;8.94;100.00
71457;BME280;59263;48.160;11.752;2022-10-31T01:41:30;96360.34;;;8.96;100.00
71457;BME280;59263;48.160;11.752;2022-10-31T01:44:01;96364.91;;;9.04;100.00
71457;BME280;59263;48.160;11.752;2022-10-31T01:46:38;96354.59;;;9.04;100.00
71457;BME280;59263;48.160;11.752;2022-10-31T01:49:13;96355.75;;;9.11;100.00
71457;BME280;59263;48.160;11.752;2022-10-31T01:51:49;96349.44;;;9.04;100.00
71457;BME280;59263;48.160;11.752;2022-10-31T01:54:19;96362.53;;;9.12;100.00
71457;BME280;59263;48.160;11.752;2022-10-31T01:56:49;96354.66;;;9.25;100.00
71457;BME280;59263;48.160;11.752;2022-10-31T01:59:19;96366.59;;;9.37;100.00
71457;BME280;59263;48.160;11.752;2022-10-31T02:01:45;96362.25;;;9.37;100.00
71457;BME280;59263;48.160;11.752;2022-10-31T02:04:11;96344.72;;;9.20;100.00
71457;BME280;59263;48.160;11.752;2022-10-31T02:06:46;96350.13;;;9.17;100.00
71457;BME280;59263;48.160;11.752;2022-10-31T02:09:12;96346.38;;;9.10;100.00
71457;BME280;59263;48.160;11.752;2022-10-31T02:11:39;96358.69;;;9.06;100.00
71457;BME280;59263;48.160;11.752;2022-10-31T02:14:05;96366.53;;;9.05;100.00
71457;BME280;59263;48.160;11.752;2022-10-31T02:16:30;96338.88;;;8.95;100.00
71457;BME280;59263;48.160;11.752;2022-10-31T02:18:56;96335.34;;;8.96;100.00
71457;BME280;59263;48.160;11.752;2022-10-31T02:21:38;96333.28;;;8.90;100.00
71457;BME280;59263;48.160;11.752;2022-10-31T02:38:09;96352.16;;;8.80;100.00
71457;BME280;59263;48.160;11.752;2022-10-31T02:40:48;96360.00;;;8.89;100.00
71457;BME280;59263;48.160;11.752;2022-10-31T02:43:27;96358.38;;;8.88;100.00
71457;BME280;59263;48.160;11.752;2022-10-31T02:46:01;96350.53;;;8.90;100.00
71457;BME280;59263;48.160;11.752;2022-10-31T02:48:32;96366.53;;;9.05;100.00
71457;BME280;59263;48.160;11.752;2022-10-31T02:51:03;96366.53;;;9.05;100.00
71457;BME280;59263;48.160;11.752;2022-10-31T02:53:36;96364.09;;;9.03;100.00
71457;BME280;59263;48.160;11.752;2022-10-31T02:58:34;96344.31;;;8.81;100.00
71457;BME280;59263;48.160;11.752;2022-10-31T03:06:30;96368.69;;;8.77;100.00
71457;BME280;59263;48.160;11.752;2022-10-31T03:09:32;96364.00;;;8.71;100.00
71457;BME280;59263;48.160;11.752;2022-10-31T03:17:31;96351.47;;;8.55;100.00
71457;BME280;59263;48.160;11.752;2022-10-31T03:20:00;96361.91;;;8.54;100.00
71457;BME280;59263;48.160;11.752;2022-10-31T03:22:29;96368.72;;;8.55;100.00
71457;BME280;59263;48.160;11.752;2022-10-31T03:24:57;96370.81;;;8.50;100.00
71457;BME280;59263;48.160;11.752;2022-10-31T03:27:27;96356.97;;;8.39;100.00
71457;BME280;59263;48.160;11.752;2022-10-31T03:29:56;96361.63;;;8.34;100.00
71457;BME280;59263;48.160;11.752;2022-10-31T03:32:27;96365.13;;;8.33;100.00
71457;BME280;59263;48.160;11.752;2022-10-31T03:34:57;96357.38;;;8.22;100.00
71457;BME280;59263;48.160;11.752;2022-10-31T03:37:26;96374.16;;;8.28;100.00
71457;BME280;59263;48.160;11.752;2022-10-31T03:39:55;96367.47;;;8.25;100.00
71457;BME280;59263;48.160;11.752;2022-10-31T03:42:27;96362.91;;;8.17;100.00
71457;BME280;59263;48.160;11.752;2022-10-31T03:45:17;96362.31;;;8.25;100.00
71457;BME280;59263;48.160;11.752;2022-10-31T03:47:46;96374.03;;;8.29;100.00
71457;BME280;59263;48.160;11.752;2022-10-31T03:50:13;96355.75;;;8.21;100.00
71457;BME280;59263;48.160;11.752;2022-10-31T03:52:45;96371.47;;;8.29;100.00
71457;BME280;59263;48.160;11.752;2022-10-31T04:00:14;96345.81;;;8.28;100.00
71457;BME280;59263;48.160;11.752;2022-10-31T04:02:44;96361.16;;;8.29;100.00
71457;BME280;59263;48.160;11.752;2022-10-31T04:05:12;96353.84;;;8.12;100.00
71457;BME280;59263;48.160;11.752;2022-10-31T04:07:41;96372.25;;;8.18;100.00
71457;BME280;59263;48.160;11.752;2022-10-31T04:10:13;96373.56;;;8.13;100.00
71457;BME280;59263;48.160;11.752;2022-10-31T04:12:41;96356.41;;;8.00;100.00
71457;BME280;59263;48.160;11.752;2022-10-31T04:15:08;96359.94;;;7.99;100.00
71457;BME280;59263;48.160;11.752;2022-10-31T04:17:36;96373.41;;;8.03;100.00
71457;BME280;59263;48.160;11.752;2022-10-31T04:20:03;96377.38;;;7.96;100.00
71457;BME280;59263;48.160;11.752;2022-10-31T04:22:28;96381.09;;;7.92;100.00
71457;BME280;59263;48.160;11.752;2022-10-31T04:24:54;96376.03;;;7.79;100.00
71457;BME280;59263;48.160;11.752;2022-10-31T04:27:19;96377.47;;;7.83;100.00
71457;BME280;59263;48.160;11.752;2022-10-31T04:29:44;96362.66;;;7.74;100.00
71457;BME280;59263;48.160;11.752;2022-10-31T04:32:10;96391.03;;;7.85;100.00
71457;BME280;59263;48.160;11.752;2022-10-31T04:34:35;96378.50;;;7.81;100.00
71457;BME280;59263;48.160;11.752;2022-10-31T04:37:00;96383.00;;;7.66;100.00
71457;BME280;59263;48.160;11.752;2022-10-31T04:39:26;96377.22;;;7.51;100.00
71457;BME280;59263;48.160;11.752;2022-10-31T04:41:51;96377.59;;;7.58;100.00
71457;BME280;59263;48.160;11.752;2022-10-31T04:44:16;96364.94;;;7.55;100.00
71457;BME280;59263;48.160;11.752;2022-10-31T04:46:41;96361.97;;;7.48;100.00
71457;BME280;59263;48.160;11.752;2022-10-31T04:49:07;96371.47;;;7.47;100.00
71457;BME280;59263;48.160;11.752;2022-10-31T04:51:32;96357.63;;;7.48;100.00
71457;BME280;59263;48.160;11.752;2022-10-31T04:53:57;96373.09;;;7.48;100.00
71457;BME280;59263;48.160;11.752;2022-10-31T04:56:23;96382.97;;;7.55;100.00
71457;BME280;59263;48.160;11.752;2022-10-31T04:58:48;96373.34;;;7.45;100.00
71457;BME280;59263;48.160;11.752;2022-10-31T05:01:13;96365.81;;;7.42;100.00
71457;BME280;59263;48.160;11.752;2022-10-31T05:03:39;96363.25;;;7.42;100.00
71457;BME280;59263;48.160;11.752;2022-10-31T05:06:05;96377.63;;;7.45;100.00
71457;BME280;59263;48.160;11.752;2022-10-31T05:08:30;96383.84;;;7.42;100.00
71457;BME280;59263;48.160;11.752;2022-10-31T05:10:59;96365.78;;;7.31;100.00
71457;BME280;59263;48.160;11.752;2022-10-31T05:13:25;96381.28;;;7.42;100.00
71457;BME280;59263;48.160;11.752;2022-10-31T05:15:50;96381.53;;;7.50;100.00
71457;BME280;59263;48.160;11.752;2022-10-31T05:18:16;96369.16;;;7.56;100.00
71457;BME280;59263;48.160;11.752;2022-10-31T05:20:41;96377.38;;;7.61;100.00
71457;BME280;59263;48.160;11.752;2022-10-31T05:23:06;96356.00;;;7.47;100.00
71457;BME280;59263;48.160;11.752;2022-10-31T05:25:32;96358.09;;;7.42;100.00
71457;BME280;59263;48.160;11.752;2022-10-31T05:27:57;96375.19;;;7.43;100.00
71457;BME280;59263;48.160;11.752;2022-10-31T05:30:26;96384.22;;;7.49;100.00
71457;BME280;59263;48.160;11.752;2022-10-31T05:32:52;96383.38;;;7.48;100.00
71457;BME280;59263;48.160;11.752;2022-10-31T05:35:26;96376.81;;;7.44;100.00
71457;BME280;59263;48.160;11.752;2022-10-31T05:37:55;96366.53;;;7.44;100.00
71457;BME280;59263;48.160;11.752;2022-10-31T05:40:22;96375.06;;;7.45;100.00
71457;BME280;59263;48.160;11.752;2022-10-31T05:42:51;96370.25;;;7.40;100.00
71457;BME280;59263;48.160;11.752;2022-10-31T05:45:17;96373.28;;;7.34;100.00
71457;BME280;59263;48.160;11.752;2022-10-31T05:47:57;96353.28;;;7.14;100.00
71457;BME280;59263;48.160;11.752;2022-10-31T05:50:24;96376.00;;;7.20;100.00
71457;BME280;59263;48.160;11.752;2022-10-31T05:52:58;96368.28;;;7.20;100.00
71457;BME280;59263;48.160;11.752;2022-10-31T05:55:23;96371.06;;;7.17;100.00
71457;BME280;59263;48.160;11.752;2022-10-31T05:57:50;96376.44;;;7.14;100.00
71457;BME280;59263;48.160;11.752;2022-10-31T06:00:16;96357.94;;;7.09;100.00
71457;BME280;59263;48.160;11.752;2022-10-31T06:02:42;96356.59;;;7.03;100.00
71457;BME280;59263;48.160;11.752;2022-10-31T06:05:07;96367.97;;;7.12;100.00
71457;BME280;59263;48.160;11.752;2022-10-31T06:07:34;96373.44;;;7.20;100.00
71457;BME280;59263;48.160;11.752;2022-10-31T06:10:01;96360.06;;;7.15;100.00
71457;BME280;59263;48.160;11.752;2022-10-31T06:12:27;96354.50;;;7.08;100.00
71457;BME280;59263;48.160;11.752;2022-10-31T06:14:52;96360.72;;;7.06;100.00
71457;BME280;59263;48.160;11.752;2022-10-31T06:17:17;96358.63;;;7.11;100.00
71457;BME280;59263;48.160;11.752;2022-10-31T06:19:43;96356.06;;;7.11;100.00
71457;BME280;59263;48.160;11.752;2022-10-31T06:22:08;96369.72;;;7.24;100.00
71457;BME280;59263;48.160;11.752;2022-10-31T06:24:33;96365.66;;;7.33;100.00
71457;BME280;59263;48.160;11.752;2022-10-31T06:26:59;96373.97;;;7.36;100.00
71457;BME280;59263;48.160;11.752;2022-10-31T06:29:24;96358.53;;;7.36;100.00
71457;BME280;59263;48.160;11.752;2022-10-31T06:31:52;96375.19;;;7.43;100.00
71457;BME280;59263;48.160;11.752;2022-10-31T06:34:18;96356.91;;;7.35;100.00
71457;BME280;59263;48.160;11.752;2022-10-31T06:36:45;96374.75;;;7.49;100.00
71457;BME280;59263;48.160;11.752;2022-10-31T06:39:10;96345.66;;;7.36;100.00
71457;BME280;59263;48.160;11.752;2022-10-31T06:41:36;96369.16;;;7.56;100.00
71457;BME280;59263;48.160;11.752;2022-10-31T06:44:01;96371.53;;;7.70;100.00
71457;BME280;59263;48.160;11.752;2022-10-31T06:46:27;96364.97;;;7.66;100.00
71457;BME280;59263;48.160;11.752;2022-10-31T06:48:52;96367.16;;;7.83;100.00
71457;BME280;59263;48.160;11.752;2022-10-31T06:51:17;96364.66;;;7.82;100.00
71457;BME280;59263;48.160;11.752;2022-10-31T06:53:43;96375.28;;;8.01;100.00
71457;BME280;59263;48.160;11.752;2022-10-31T06:56:08;96389.03;;;8.13;100.00
71457;BME280;59263;48.160;11.752;2022-10-31T06:58:33;96364.88;;;8.14;100.00
71457;BME280;59263;48.160;11.752;2022-10-31T07:00:59;96371.81;;;8.24;100.00
71457;BME280;59263;48.160;11.752;2022-10-31T07:03:25;96364.19;;;8.23;100.00
71457;BME280;59263;48.160;11.752;2022-10-31T07:05:51;96385.53;;;8.36;100.00
71457;BME280;59263;48.160;11.752;2022-10-31T07:08:16;96369.06;;;8.39;100.00
71457;BME280;59263;48.160;11.752;2022-10-31T07:10:42;96385.94;;;8.54;100.00
71457;BME280;59263;48.160;11.752;2022-10-31T07:13:13;96370.34;;;8.56;100.00
71457;BME280;59263;48.160;11.752;2022-10-31T07:15:40;96381.97;;;8.72;100.00
71457;BME280;59263;48.160;11.752;2022-10-31T07:18:09;96385.59;;;8.81;100.00
71457;BME280;59263;48.160;11.752;2022-10-31T07:20:35;96371.50;;;8.74;100.00
71457;BME280;59263;48.160;11.752;2022-10-31T07:23:00;96379.22;;;8.96;100.00
71457;BME280;59263;48.160;11.752;2022-10-31T07:25:26;96382.50;;;9.21;100.00
71457;BME280;59263;48.160;11.752;2022-10-31T07:27:51;96382.84;;;9.28;100.00
71457;BME280;59263;48.160;11.752;2022-10-31T07:30:16;96382.34;;;9.34;100.00
71457;BME280;59263;48.160;11.752;2022-10-31T07:32:46;96374.31;;;9.48;100.00
71457;BME280;59263;48.160;11.752;2022-10-31T07:35:17;96357.53;;;9.54;100.00
71457;BME280;59263;48.160;11.752;2022-10-31T07:37:42;96381.88;;;9.72;100.00
71457;BME280;59263;48.160;11.752;2022-10-31T07:40:08;96375.94;;;9.81;100.00
71457;BME280;59263;48.160;11.752;2022-10-31T07:42:39;96367.75;;;9.76;100.00
71457;BME280;59263;48.160;11.752;2022-10-31T07:45:06;96383.09;;;9.89;100.00
71457;BME280;59263;48.160;11.752;2022-10-31T07:47:49;96391.59;;;10.01;100.00
71457;BME280;59263;48.160;11.752;2022-10-31T07:50:17;96384.06;;;10.09;100.00
71457;BME280;59263;48.160;11.752;2022-10-31T07:52:43;96387.66;;;10.17;100.00
71457;BME280;59263;48.160;11.752;2022-10-31T07:55:08;96370.69;;;10.25;100.00
71457;BME280;59263;48.160;11.752;2022-10-31T07:57:34;96375.59;;;10.49;100.00
71457;BME280;59263;48.160;11.752;2022-10-31T08:00:02;96372.91;;;10.60;100.00
71457;BME280;59263;48.160;11.752;2022-10-31T08:02:31;96363.13;;;10.63;100.00
71457;BME280;59263;48.160;11.752;2022-10-31T08:04:56;96363.19;;;10.73;100.00
71457;BME280;59263;48.160;11.752;2022-10-31T08:07:22;96365.72;;;10.94;100.00
71457;BME280;59263;48.160;11.752;2022-10-31T08:09:47;96367.28;;;11.16;100.00
71457;BME280;59263;48.160;11.752;2022-10-31T08:12:12;96362.50;;;11.21;100.00
71457;BME280;59263;48.160;11.752;2022-10-31T08:14:38;96348.63;;;11.32;100.00
71457;BME280;59263;48.160;11.752;2022-10-31T08:17:03;96351.63;;;11.47;100.00
71457;BME280;59263;48.160;11.752;2022-10-31T08:19:28;96339.50;;;11.57;100.00
71457;BME280;59263;48.160;11.752;2022-10-31T08:21:54;96349.19;;;11.74;100.00
71457;BME280;59263;48.160;11.752;2022-10-31T08:24:20;96334.47;;;11.84;100.00
71457;BME280;59263;48.160;11.752;2022-10-31T08:26:46;96333.75;;;12.11;100.00
71457;BME280;59263;48.160;11.752;2022-10-31T08:29:11;96332.22;;;12.19;100.00
71457;BME280;59263;48.160;11.752;2022-10-31T08:31:36;96319.63;;;12.33;100.00
71457;BME280;59263;48.160;11.752;2022-10-31T08:34:02;96306.75;;;12.42;100.00
71457;BME280;59263;48.160;11.752;2022-10-31T08:36:28;96318.44;;;12.65;100.00
71457;BME280;59263;48.160;11.752;2022-10-31T08:38:54;96305.34;;;12.57;100.00
71457;BME280;59263;48.160;11.752;2022-10-31T08:41:20;96313.44;;;12.72;100.00
71457;BME280;59263;48.160;11.752;2022-10-31T08:43:46;96327.75;;;12.86;100.00
71457;BME280;59263;48.160;11.752;2022-10-31T08:46:11;96316.75;;;13.19;100.00
71457;BME280;59263;48.160;11.752;2022-10-31T08:48:36;96306.00;;;13.14;100.00
71457;BME280;59263;48.160;11.752;2022-10-31T08:51:02;96310.03;;;13.26;100.00
71457;BME280;59263;48.160;11.752;2022-10-31T08:53:27;96305.75;;;13.35;100.00
71457;BME280;59263;48.160;11.752;2022-10-31T08:55:55;96305.00;;;13.43;100.00
71457;BME280;59263;48.160;11.752;2022-10-31T08:58:21;96311.03;;;13.61;100.00
71457;BME280;59263;48.160;11.752;2022-10-31T09:00:49;96288.56;;;13.60;100.00
71457;BME280;59263;48.160;11.752;2022-10-31T09:03:21;96303.91;;;13.89;100.00
71457;BME280;59263;48.160;11.752;2022-10-31T09:05:46;96304.19;;;14.04;100.00
71457;BME280;59263;48.160;11.752;2022-10-31T09:08:12;96295.66;;;14.20;100.00
71457;BME280;59263;48.160;11.752;2022-10-31T09:10:39;96276.31;;;14.22;100.00
71457;BME280;59263;48.160;11.752;2022-10-31T09:13:06;96269.72;;;14.36;100.00
71457;BME280;59263;48.160;11.752;2022-10-31T09:15:34;96262.41;;;14.40;100.00
71457;BME280;59263;48.160;11.752;2022-10-31T09:18:00;96269.72;;;14.62;100.00
71457;BME280;59263;48.160;11.752;2022-10-31T09:20:26;96271.22;;;14.73;100.00
71457;BME280;59263;48.160;11.752;2022-10-31T09:22:56;96267.16;;;14.87;100.00
71457;BME280;59263;48.160;11.752;2022-10-31T09:25:22;96245.88;;;14.91;100.00
71457;BME280;59263;48.160;11.752;2022-10-31T09:27:47;96248.00;;;15.04;100.00
71457;BME280;59263;48.160;11.752;2022-10-31T09:30:13;96240.69;;;15.16;100.00
71457;BME280;59263;48.160;11.752;2022-10-31T09:32:39;96258.66;;;15.43;100.00
71457;BME280;59263;48.160;11.752;2022-10-31T09:35:04;96234.84;;;15.38;100.00
71457;BME280;59263;48.160;11.752;2022-10-31T09:37:30;96240.25;;;15.61;100.00
71457;BME280;59263;48.160;11.752;2022-10-31T09:39:55;96240.88;;;15.55;100.00
71457;BME280;59263;48.160;11.752;2022-10-31T09:42:27;96248.41;;;15.75;100.00
71457;BME280;59263;48.160;11.752;2022-10-31T09:47:35;96240.56;;;15.91;100.00
71457;BME280;59263;48.160;11.752;2022-10-31T09:50:22;96232.38;;;15.94;100.00
71457;BME280;59263;48.160;11.752;2022-10-31T09:53:02;96231.56;;;16.10;100.00
71457;BME280;59263;48.160;11.752;2022-10-31T09:55:44;96225.81;;;16.23;100.00
71457;BME280;59263;48.160;11.752;2022-10-31T09:58:18;96215.78;;;16.34;100.00
71457;BME280;59263;48.160;11.752;2022-10-31T10:00:46;96208.09;;;16.41;100.00
71457;BME280;59263;48.160;11.752;2022-10-31T10:06:13;96201.22;;;16.48;100.00
71457;BME280;59263;48.160;11.752;2022-10-31T10:08:39;96208.03;;;16.57;100.00
71457;BME280;59263;48.160;11.752;2022-10-31T10:11:24;96216.31;;;16.77;100.00
71457;BME280;59263;48.160;11.752;2022-10-31T10:19:18;96214.00;;;17.05;100.00
71457;BME280;59263;48.160;11.752;2022-10-31T10:24:55;96209.34;;;17.15;100.00
71457;BME280;59263;48.160;11.752;2022-10-31T10:30:15;96193.19;;;17.35;100.00
71457;BME280;59263;48.160;11.752;2022-10-31T10:37:57;96193.34;;;17.56;100.00
71457;BME280;59263;48.160;11.752;2022-10-31T10:40:25;96170.13;;;17.53;100.00
71457;BME280;59263;48.160;11.752;2022-10-31T10:46:12;96183.69;;;17.80;100.00
71457;BME280;59263;48.160;11.752;2022-10-31T10:49:12;96186.56;;;17.85;100.00
71457;BME280;59263;48.160;11.752;2022-10-31T10:56:56;96168.69;;;18.03;100.00
71457;BME280;59263;48.160;11.752;2022-10-31T10:59:24;96162.72;;;17.95;100.00
71457;BME280;59263;48.160;11.752;2022-10-31T11:01:51;96162.91;;;17.93;100.00
71457;BME280;59263;48.160;11.752;2022-10-31T11:04:32;96167.09;;;18.02;100.00
71457;BME280;59263;48.160;11.752;2022-10-31T11:07:08;96147.56;;;17.90;100.00
71457;BME280;59263;48.160;11.752;2022-10-31T11:09:34;96153.78;;;17.89;100.00
71457;BME280;59263;48.160;11.752;2022-10-31T11:12:10;96161.28;;;17.92;100.00
71457;BME280;59263;48.160;11.752;2022-10-31T11:14:51;96144.13;;;17.89;100.00
71457;BME280;59263;48.160;11.752;2022-10-31T11:20:05;96150.72;;;18.00;100.00
71457;BME280;59263;48.160;11.752;2022-10-31T11:22:31;96143.88;;;17.99;100.00
71457;BME280;59263;48.160;11.752;2022-10-31T11:24:56;96119.94;;;17.87;100.00
71457;BME280;59263;48.160;11.752;2022-10-31T11:27:25;96107.84;;;17.86;100.00
71457;BME280;59263;48.160;11.752;2022-10-31T11:29:51;96111.66;;;17.84;100.00
71457;BME280;59263;48.160;11.752;2022-10-31T11:32:26;96125.34;;;17.86;100.00
71457;BME280;59263;48.160;11.752;2022-10-31T11:34:55;96108.13;;;17.77;100.00
71457;BME280;59263;48.160;11.752;2022-10-31T11:37:24;96140.16;;;17.94;100.00
71457;BME280;59263;48.160;11.752;2022-10-31T11:39:57;96136.28;;;18.04;100.00
71457;BME280;59263;48.160;11.752;2022-10-31T11:42:28;96119.56;;;18.05;100.00
71457;BME280;59263;48.160;11.752;2022-10-31T11:44:55;96104.03;;;18.04;100.00
71457;BME280;59263;48.160;11.752;2022-10-31T11:47:27;96118.72;;;18.20;100.00
71457;BME280;59263;48.160;11.752;2022-10-31T11:49:53;96113.13;;;18.23;100.00
71457;BME280;59263;48.160;11.752;2022-10-31T11:52:23;96113.56;;;18.26;100.00
71457;BME280;59263;48.160;11.752;2022-10-31T11:54:54;96102.66;;;18.23;100.00
71457;BME280;59263;48.160;11.752;2022-10-31T11:57:28;96099.13;;;18.30;100.00
71457;BME280;59263;48.160;11.752;2022-10-31T11:59:57;96119.78;;;18.40;100.00
71457;BME280;59263;48.160;11.752;2022-10-31T12:02:23;96113.44;;;18.49;100.00
71457;BME280;59263;48.160;11.752;2022-10-31T12:04:57;96099.59;;;18.55;100.00
71457;BME280;59263;48.160;11.752;2022-10-31T12:07:24;96085.75;;;18.61;100.00
71457;BME280;59263;48.160;11.752;2022-10-31T12:09:49;96101.88;;;18.80;100.00
71457;BME280;59263;48.160;11.752;2022-10-31T12:17:17;96078.09;;;19.03;100.00
71457;BME280;59263;48.160;11.752;2022-10-31T12:27:59;96089.47;;;19.17;100.00
71457;BME280;59263;48.160;11.752;2022-10-31T12:33:23;96080.06;;;19.01;100.00
71457;BME280;59263;48.160;11.752;2022-10-31T12:41:27;96078.78;;;18.90;100.00
71457;BME280;59263;48.160;11.752;2022-10-31T12:52:00;96045.81;;;18.59;100.00
71457;BME280;59263;48.160;11.752;2022-10-31T12:54:48;96061.16;;;18.62;100.00
71457;BME280;59263;48.160;11.752;2022-10-31T12:57:38;96032.03;;;18.51;100.00
71457;BME280;59263;48.160;11.752;2022-10-31T13:00:13;96038.06;;;18.51;100.00
71457;BME280;59263;48.160;11.752;2022-10-31T13:02:58;96046.16;;;18.56;100.00
71457;BME280;59263;48.160;11.752;2022-10-31T13:05:38;96043.81;;;18.61;100.00
71457;BME280;59263;48.160;11.752;2022-10-31T13:08:10;96022.34;;;18.51;100.00
71457;BME280;59263;48.160;11.752;2022-10-31T13:10:59;96028.47;;;18.58;100.00
71457;BME280;59263;48.160;11.752;2022-10-31T13:13:40;96032.94;;;18.65;100.00
71457;BME280;59263;48.160;11.752;2022-10-31T13:16:16;96024.47;;;18.62;100.00
71457;BME280;59263;48.160;11.752;2022-10-31T13:19:05;96011.94;;;18.58;100.00
71457;BME280;59263;48.160;11.752;2022-10-31T13:21:39;96011.53;;;18.61;100.00
71457;BME280;59263;48.160;11.752;2022-10-31T13:24:14;96017.13;;;18.73;100.00
71457;BME280;59263;48.160;11.752;2022-10-31T13:26:52;96007.25;;;18.75;100.00
71457;BME280;59263;48.160;11.752;2022-10-31T13:29:33;95998.78;;;18.73;100.00
71457;BME280;59263;48.160;11.752;2022-10-31T13:32:04;96008.50;;;18.79;100.00
71457;BME280;59263;48.160;11.752;2022-10-31T13:34:34;96004.84;;;18.80;100.00
71457;BME280;59263;48.160;11.752;2022-10-31T13:42:47;96028.44;;;18.80;100.00
71457;BME280;59263;48.160;11.752;2022-10-31T13:45:18;96025.44;;;18.76;100.00
71457;BME280;59263;48.160;11.752;2022-10-31T13:47:55;96018.03;;;18.65;100.00
71457;BME280;59263;48.160;11.752;2022-10-31T13:50:24;96003.72;;;18.46;100.00
71457;BME280;59263;48.160;11.752;2022-10-31T13:52:50;96009.16;;;18.45;100.00
71457;BME280;59263;48.160;11.752;2022-10-31T13:58:03;96023.69;;;18.26;100.00
71457;BME280;59263;48.160;11.752;2022-10-31T14:00:29;96030.03;;;18.17;100.00
71457;BME280;59263;48.160;11.752;2022-10-31T14:03:00;96000.81;;;17.98;100.00
71457;BME280;59263;48.160;11.752;2022-10-31T14:05:27;96023.41;;;17.99;100.00
71457;BME280;59263;48.160;11.752;2022-10-31T14:07:56;96009.72;;;17.82;100.00
71457;BME280;59263;48.160;11.752;2022-10-31T14:10:31;96031.75;;;17.88;100.00
71457;BME280;59263;48.160;11.752;2022-10-31T14:13:24;96021.19;;;17.81;100.00
71457;BME280;59263;48.160;11.752;2022-10-31T14:15:58;96017.56;;;17.67;100.00
